createdAt,value
2018-09-30T00:01:32.974Z,56.50
2018-09-30T00:04:01.795Z,56.60
2018-09-30T00:06:30.281Z,56.70
2018-09-30T00:08:58.725Z,56.80
2018-09-30T00:11:27.048Z,56.90
2018-09-30T00:13:55.580Z,56.90
2018-09-30T00:16:24.484Z,57.30
2018-09-30T00:18:52.965Z,56.90
2018-09-30T00:21:21.341Z,56.80
2018-09-30T00:23:55.594Z,57.10
2018-09-30T00:26:29.453Z,57.10
2018-09-30T00:28:57.878Z,57.70
2018-09-30T00:31:26.372Z,57.00
2018-09-30T00:34:00.025Z,57.00
2018-09-30T00:36:28.567Z,57.10
2018-09-30T00:38:57.207Z,57.40
2018-09-30T00:41:26.735Z,57.00
2018-09-30T00:43:55.398Z,57.10
2018-09-30T00:46:24.081Z,57.20
2018-09-30T00:48:52.731Z,57.10
2018-09-30T00:51:21.232Z,57.20
2018-09-30T00:53:49.734Z,57.30
2018-09-30T00:56:18.035Z,57.40
2018-09-30T00:58:46.437Z,57.20
2018-09-30T01:01:21.433Z,57.20
2018-09-30T01:03:50.173Z,57.30
2018-09-30T01:06:18.543Z,57.40
2018-09-30T01:08:48.575Z,57.00
2018-09-30T01:11:23.230Z,57.30
2018-09-30T01:14:04.746Z,57.10
2018-09-30T01:16:33.476Z,57.20
2018-09-30T01:19:02.031Z,57.40
2018-09-30T01:21:30.520Z,57.30
2018-09-30T01:23:59.193Z,57.50
2018-09-30T01:26:27.877Z,57.30
2018-09-30T01:28:56.387Z,57.20
2018-09-30T01:31:24.941Z,57.30
2018-09-30T01:33:53.571Z,58.00
2018-09-30T01:36:22.077Z,57.30
2018-09-30T01:38:50.534Z,57.40
2018-09-30T01:41:19.095Z,57.50
2018-09-30T01:43:47.733Z,57.60
2018-09-30T01:46:16.295Z,57.50
2018-09-30T01:48:44.929Z,57.50
2018-09-30T01:51:17.548Z,57.50
2018-09-30T01:53:46.509Z,57.50
2018-09-30T01:56:14.913Z,57.70
2018-09-30T01:58:43.331Z,57.70
2018-09-30T02:03:50.422Z,57.60
2018-09-30T02:06:19.028Z,57.80
2018-09-30T02:08:47.537Z,57.50
2018-09-30T02:11:16.143Z,58.50
2018-09-30T02:13:44.448Z,57.60
2018-09-30T02:16:12.793Z,57.60
2018-09-30T02:18:41.467Z,57.50
2018-09-30T02:21:11.137Z,57.70
2018-09-30T02:23:39.521Z,57.80
2018-09-30T02:26:08.188Z,57.90
2018-09-30T02:28:36.741Z,57.80
2018-09-30T02:31:05.330Z,58.30
2018-09-30T02:33:35.434Z,57.80
2018-09-30T02:36:03.829Z,58.00
2018-09-30T02:38:32.366Z,57.90
2018-09-30T02:41:00.806Z,57.90
2018-09-30T02:43:29.193Z,58.10
2018-09-30T02:45:57.804Z,58.00
2018-09-30T02:48:26.237Z,58.00
2018-09-30T02:50:55.859Z,58.40
2018-09-30T02:53:24.246Z,57.90
2018-09-30T02:55:52.628Z,57.90
2018-09-30T02:58:21.006Z,58.20
2018-09-30T03:00:49.389Z,58.10
2018-09-30T03:03:17.783Z,58.00
2018-09-30T03:05:46.278Z,58.30
2018-09-30T03:08:20.477Z,58.20
2018-09-30T03:10:49.150Z,58.20
2018-09-30T03:13:17.851Z,58.50
2018-09-30T03:15:47.003Z,58.30
2018-09-30T03:18:15.652Z,58.60
2018-09-30T03:20:45.341Z,58.50
2018-09-30T03:23:14.090Z,58.50
2018-09-30T03:25:42.728Z,58.40
2018-09-30T03:28:11.456Z,58.30
2018-09-30T03:30:40.251Z,58.50
2018-09-30T03:33:09.072Z,58.60
2018-09-30T03:35:37.532Z,58.60
2018-09-30T03:38:06.626Z,58.80
2018-09-30T03:40:35.003Z,58.60
2018-09-30T03:43:03.371Z,58.50
2018-09-30T03:45:31.790Z,58.50
2018-09-30T03:48:00.729Z,58.60
2018-09-30T03:50:31.423Z,58.70
2018-09-30T03:53:01.215Z,58.60
2018-09-30T03:55:29.622Z,58.60
2018-09-30T03:57:58.028Z,58.60
2018-09-30T04:00:27.378Z,58.50
2018-09-30T04:02:55.825Z,58.50
2018-09-30T04:05:24.577Z,58.70
2018-09-30T04:07:53.407Z,58.60
2018-09-30T04:10:22.074Z,58.70
2018-09-30T04:12:50.568Z,58.70
2018-09-30T04:15:20.185Z,58.60
2018-09-30T04:17:48.671Z,58.80
2018-09-30T04:20:17.106Z,59.00
2018-09-30T04:22:45.748Z,58.90
2018-09-30T04:25:14.527Z,58.90
2018-09-30T04:30:23.511Z,59.10
2018-09-30T04:32:52.337Z,59.00
2018-09-30T04:35:20.725Z,59.40
2018-09-30T04:37:49.388Z,59.70
2018-09-30T04:40:18.119Z,59.30
2018-09-30T04:42:46.578Z,59.20
2018-09-30T04:45:14.950Z,59.40
2018-09-30T04:47:43.554Z,59.60
2018-09-30T04:50:12.023Z,60.90
2018-09-30T04:52:40.421Z,59.80
2018-09-30T04:55:08.889Z,59.90
2018-09-30T04:57:38.111Z,59.70
2018-09-30T05:00:07.185Z,59.80
2018-09-30T05:02:37.586Z,60.00
2018-09-30T05:05:06.333Z,59.80
2018-09-30T05:07:34.817Z,59.80
2018-09-30T05:10:03.694Z,59.70
2018-09-30T05:12:32.373Z,60.40
2018-09-30T05:15:00.854Z,59.90
2018-09-30T05:17:29.886Z,59.90
2018-09-30T05:19:58.494Z,59.90
2018-09-30T05:22:28.216Z,59.70
2018-09-30T05:24:57.755Z,60.00
2018-09-30T05:30:07.155Z,60.10
2018-09-30T05:32:40.131Z,60.20
2018-09-30T05:35:12.259Z,60.10
2018-09-30T05:37:51.948Z,60.40
2018-09-30T05:40:25.999Z,60.10
2018-09-30T05:42:54.723Z,61.80
2018-09-30T05:45:40.019Z,60.10
2018-09-30T05:48:11.411Z,60.10
2018-09-30T05:50:41.374Z,60.10
2018-09-30T05:53:09.773Z,60.80
2018-09-30T05:55:42.763Z,60.60
2018-09-30T05:58:12.558Z,60.60
2018-09-30T06:00:45.736Z,60.80
2018-09-30T06:03:15.593Z,60.50
2018-09-30T06:05:51.632Z,60.50
2018-09-30T06:08:20.810Z,60.80
2018-09-30T06:10:49.191Z,61.10
2018-09-30T06:13:17.960Z,61.80
2018-09-30T06:15:46.645Z,61.20
2018-09-30T06:18:15.470Z,61.90
2018-09-30T06:20:43.909Z,60.70
2018-09-30T06:23:13.185Z,61.10
2018-09-30T06:25:42.089Z,61.20
2018-09-30T06:28:10.456Z,61.20
2018-09-30T06:30:38.933Z,61.60
2018-09-30T06:33:11.083Z,61.20
2018-09-30T06:35:41.429Z,61.60
2018-09-30T06:38:12.247Z,61.80
2018-09-30T06:40:40.752Z,61.60
2018-09-30T06:43:09.197Z,61.80
2018-09-30T06:45:38.118Z,61.80
2018-09-30T06:48:07.370Z,61.70
2018-09-30T06:50:35.766Z,61.90
2018-09-30T06:53:05.497Z,62.00
2018-09-30T06:55:33.946Z,62.20
2018-09-30T06:58:02.409Z,62.10
2018-09-30T07:00:32.470Z,63.90
2018-09-30T07:03:02.323Z,62.50
2018-09-30T07:05:40.258Z,62.30
2018-09-30T07:08:10.197Z,62.70
2018-09-30T07:10:43.338Z,62.80
2018-09-30T07:13:11.654Z,62.90
2018-09-30T07:15:40.360Z,63.00
2018-09-30T07:18:09.009Z,62.90
2018-09-30T07:20:37.618Z,63.70
2018-09-30T07:23:07.353Z,63.10
2018-09-30T07:25:36.883Z,63.80
2018-09-30T07:28:05.402Z,63.80
2018-09-30T07:30:33.882Z,64.10
2018-09-30T07:33:03.051Z,63.80
2018-09-30T07:38:15.636Z,64.10
2018-09-30T07:40:44.066Z,64.60
2018-09-30T07:43:13.241Z,65.90
2018-09-30T07:45:41.951Z,64.50
2018-09-30T07:48:10.577Z,64.60
2018-09-30T07:50:39.094Z,65.30
2018-09-30T07:53:09.484Z,65.10
2018-09-30T07:55:37.879Z,65.60
2018-09-30T07:58:08.564Z,65.40
2018-09-30T08:00:37.294Z,65.70
2018-09-30T08:03:05.669Z,65.70
2018-09-30T08:05:34.212Z,65.60
2018-09-30T08:08:02.698Z,65.80
2018-09-30T08:10:31.180Z,65.30
2018-09-30T08:13:01.970Z,66.40
2018-09-30T08:15:30.512Z,66.00
2018-09-30T08:17:59.075Z,66.60
2018-09-30T08:20:37.554Z,66.80
2018-09-30T08:23:05.996Z,66.50
2018-09-30T08:25:34.333Z,66.90
2018-09-30T08:28:03.304Z,66.80
2018-09-30T08:30:31.731Z,66.80
2018-09-30T08:33:00.081Z,67.10
2018-09-30T08:35:28.373Z,67.00
2018-09-30T08:38:01.906Z,66.90
2018-09-30T08:40:35.659Z,66.90
2018-09-30T08:43:03.994Z,66.80
2018-09-30T08:45:32.420Z,66.40
2018-09-30T08:48:00.708Z,66.30
2018-09-30T08:50:29.025Z,66.20
2018-09-30T08:52:57.630Z,66.10
2018-09-30T08:55:26.089Z,66.30
2018-09-30T08:57:54.422Z,66.70
2018-09-30T09:00:22.817Z,65.90
2018-09-30T09:02:51.498Z,65.90
2018-09-30T09:05:20.083Z,66.30
2018-09-30T09:07:48.557Z,66.40
2018-09-30T09:10:16.956Z,66.30
2018-09-30T09:12:45.321Z,66.30
2018-09-30T09:15:13.613Z,66.30
2018-09-30T09:17:42.620Z,66.00
2018-09-30T09:20:10.904Z,66.10
2018-09-30T09:22:39.365Z,66.00
2018-09-30T09:25:07.668Z,65.80
2018-09-30T09:27:36.060Z,66.00
2018-09-30T09:30:04.780Z,66.10
2018-09-30T09:32:36.994Z,65.70
2018-09-30T09:35:06.852Z,66.20
2018-09-30T09:37:35.418Z,66.40
2018-09-30T09:40:04.712Z,65.50
2018-09-30T09:42:33.105Z,65.40
2018-09-30T09:45:01.525Z,63.20
2018-09-30T09:47:29.854Z,62.10
2018-09-30T09:49:58.953Z,62.10
2018-09-30T09:52:27.494Z,61.90
2018-09-30T09:54:56.321Z,62.20
2018-09-30T09:57:24.983Z,61.30
2018-09-30T09:59:53.408Z,59.10
2018-09-30T10:02:22.834Z,59.30
2018-09-30T10:04:52.004Z,59.00
2018-09-30T10:07:20.433Z,58.30
2018-09-30T10:09:49.279Z,58.70
2018-09-30T10:12:18.252Z,57.80
2018-09-30T10:14:46.759Z,58.00
2018-09-30T10:17:15.102Z,57.90
2018-09-30T10:19:43.652Z,57.90
2018-09-30T10:22:11.969Z,58.20
2018-09-30T10:24:40.397Z,56.30
2018-09-30T10:27:08.826Z,56.90
2018-09-30T10:29:37.141Z,57.00
2018-09-30T10:32:05.452Z,56.90
2018-09-30T10:34:33.750Z,56.60
2018-09-30T10:37:02.187Z,55.10
2018-09-30T10:39:30.544Z,56.50
2018-09-30T10:41:58.992Z,56.40
2018-09-30T10:44:27.337Z,55.20
2018-09-30T10:46:55.758Z,56.20
2018-09-30T10:49:24.171Z,55.90
2018-09-30T10:51:52.624Z,55.90
2018-09-30T10:54:20.946Z,55.80
2018-09-30T10:56:49.430Z,55.40
2018-09-30T10:59:17.878Z,55.70
2018-09-30T11:01:46.409Z,55.20
2018-09-30T11:04:15.238Z,54.30
2018-09-30T11:06:43.629Z,55.90
2018-09-30T11:09:12.051Z,55.40
2018-09-30T11:11:40.429Z,55.20
2018-09-30T11:14:11.332Z,55.50
2018-09-30T11:16:39.682Z,54.50
2018-09-30T11:19:08.175Z,55.30
2018-09-30T11:21:36.543Z,55.30
2018-09-30T11:24:05.777Z,54.80
2018-09-30T11:26:34.181Z,54.70
2018-09-30T11:29:02.499Z,54.00
2018-09-30T11:31:31.157Z,54.20
2018-09-30T11:33:59.960Z,54.60
2018-09-30T11:36:28.593Z,54.50
2018-09-30T11:38:57.117Z,53.30
2018-09-30T11:41:25.505Z,53.90
2018-09-30T11:43:54.024Z,53.60
2018-09-30T11:46:22.476Z,54.10
2018-09-30T11:48:50.855Z,54.70
2018-09-30T11:51:19.373Z,54.50
2018-09-30T11:53:47.764Z,53.40
2018-09-30T11:56:16.359Z,53.00
2018-09-30T11:58:44.788Z,53.60
2018-09-30T12:01:13.233Z,54.40
2018-09-30T12:03:41.841Z,53.20
2018-09-30T12:06:10.344Z,54.40
2018-09-30T12:08:38.736Z,52.30
2018-09-30T12:11:07.139Z,51.60
2018-09-30T12:13:35.485Z,52.60
2018-09-30T12:16:03.882Z,52.90
2018-09-30T12:18:32.456Z,52.40
2018-09-30T12:28:00.025Z,52.50
2018-09-30T12:30:28.341Z,52.10
2018-09-30T12:32:57.673Z,51.60
2018-09-30T12:35:26.028Z,49.80
2018-09-30T12:37:54.505Z,50.80
2018-09-30T12:40:22.930Z,51.30
2018-09-30T12:42:51.681Z,51.90
2018-09-30T12:45:21.091Z,51.60
2018-09-30T12:47:49.984Z,52.30
2018-09-30T12:50:18.562Z,52.30
2018-09-30T12:52:46.965Z,52.00
2018-09-30T12:55:15.336Z,52.00
2018-09-30T12:57:43.789Z,53.20
2018-09-30T13:00:12.816Z,54.90
2018-09-30T13:02:41.310Z,55.60
2018-09-30T13:05:10.216Z,55.70
2018-09-30T13:07:38.557Z,55.30
2018-09-30T13:10:06.970Z,55.20
2018-09-30T13:12:35.776Z,55.50
2018-09-30T13:15:04.204Z,55.20
2018-09-30T13:17:32.509Z,55.10
2018-09-30T13:20:01.032Z,54.90
2018-09-30T13:22:29.721Z,54.70
2018-09-30T13:24:58.113Z,54.50
2018-09-30T13:27:26.552Z,54.40
2018-09-30T13:29:55.489Z,54.00
2018-09-30T13:32:23.925Z,54.40
2018-09-30T13:34:52.451Z,53.60
2018-09-30T13:37:21.250Z,54.30
2018-09-30T13:39:50.042Z,54.40
2018-09-30T13:42:18.412Z,54.60
2018-09-30T13:44:46.797Z,54.30
2018-09-30T13:47:15.105Z,54.40
2018-09-30T13:49:43.441Z,53.80
2018-09-30T13:52:11.762Z,52.90
2018-09-30T13:54:40.537Z,53.10
2018-09-30T13:57:08.844Z,52.00
2018-09-30T13:59:37.206Z,51.70
2018-09-30T14:02:05.980Z,52.10
2018-09-30T14:04:34.358Z,51.80
2018-09-30T14:07:02.715Z,51.90
2018-09-30T14:09:30.974Z,52.30
2018-09-30T14:11:59.308Z,52.50
2018-09-30T14:14:38.164Z,52.30
2018-09-30T14:17:06.704Z,52.90
2018-09-30T14:19:35.060Z,53.20
2018-09-30T14:22:03.385Z,53.20
2018-09-30T14:24:31.725Z,53.60
2018-09-30T14:27:00.246Z,53.20
2018-09-30T14:29:28.571Z,52.20
2018-09-30T14:31:56.938Z,52.60
2018-09-30T14:34:25.422Z,52.70
2018-09-30T14:36:53.813Z,52.30
2018-09-30T14:39:22.148Z,53.00
2018-09-30T14:41:50.645Z,53.50
2018-09-30T14:44:18.973Z,52.20
2018-09-30T14:46:47.828Z,52.20
2018-09-30T14:49:16.199Z,51.80
2018-09-30T14:51:44.621Z,52.40
2018-09-30T14:54:13.038Z,52.30
2018-09-30T14:56:41.382Z,51.70
2018-09-30T14:59:09.785Z,51.80
2018-09-30T15:01:38.227Z,52.20
2018-09-30T15:04:06.547Z,51.60
2018-09-30T15:06:34.922Z,52.20
2018-09-30T15:09:03.999Z,52.10
2018-09-30T15:11:32.329Z,52.50
2018-09-30T15:14:00.699Z,52.80
2018-09-30T15:16:29.027Z,52.90
2018-09-30T15:18:57.633Z,52.70
2018-09-30T15:21:26.295Z,52.30
2018-09-30T15:23:54.594Z,52.40
2018-09-30T15:26:23.048Z,53.10
2018-09-30T15:28:51.599Z,52.90
2018-09-30T15:31:19.973Z,52.80
2018-09-30T15:33:48.398Z,52.90
2018-09-30T15:36:16.878Z,53.10
2018-09-30T15:38:45.569Z,53.20
2018-09-30T15:41:14.027Z,53.70
2018-09-30T15:43:42.419Z,53.90
2018-09-30T15:46:10.700Z,54.20
2018-09-30T15:48:39.013Z,54.20
2018-09-30T15:51:07.345Z,54.40
2018-09-30T15:53:35.749Z,54.60
2018-09-30T15:56:04.040Z,55.10
2018-09-30T15:58:32.359Z,54.90
2018-09-30T16:01:00.717Z,55.00
2018-09-30T16:03:28.996Z,54.90
2018-09-30T16:05:57.294Z,55.00
2018-09-30T16:08:27.989Z,55.00
2018-09-30T16:10:56.340Z,55.10
2018-09-30T16:13:25.051Z,55.20
2018-09-30T16:15:53.380Z,55.10
2018-09-30T16:18:21.669Z,55.20
2018-09-30T16:20:50.026Z,55.40
2018-09-30T16:23:18.447Z,55.30
2018-09-30T16:25:48.070Z,55.50
2018-09-30T16:28:16.447Z,55.60
2018-09-30T16:30:44.768Z,55.70
2018-09-30T16:33:13.132Z,55.70
2018-09-30T16:35:42.320Z,55.80
2018-09-30T16:38:11.478Z,55.90
2018-09-30T16:40:51.751Z,56.00
2018-09-30T16:43:20.732Z,56.10
2018-09-30T16:45:53.374Z,56.20
2018-09-30T16:48:25.618Z,56.30
2018-09-30T16:50:54.072Z,56.50
2018-09-30T16:53:23.156Z,56.90
2018-09-30T16:55:51.472Z,57.20
2018-09-30T16:58:20.141Z,57.60
2018-09-30T17:00:48.509Z,58.50
2018-09-30T17:03:16.910Z,58.60
2018-09-30T17:05:45.270Z,59.00
2018-09-30T17:08:13.568Z,58.90
2018-09-30T17:10:41.984Z,59.20
2018-09-30T17:13:10.370Z,59.10
2018-09-30T17:15:38.707Z,59.40
2018-09-30T17:18:07.117Z,60.00
2018-09-30T17:20:35.453Z,61.00
2018-09-30T17:23:03.747Z,60.30
2018-09-30T17:25:32.109Z,60.50
2018-09-30T17:28:01.004Z,59.70
2018-09-30T17:30:29.399Z,59.90
2018-09-30T17:32:57.709Z,60.10
2018-09-30T17:35:26.018Z,60.40
2018-09-30T17:37:54.490Z,60.50
2018-09-30T17:40:22.851Z,60.90
2018-09-30T17:42:51.186Z,60.80
2018-09-30T17:45:19.497Z,60.60
2018-09-30T17:47:47.930Z,60.50
2018-09-30T17:50:20.014Z,60.10
2018-09-30T17:52:48.703Z,60.60
2018-09-30T17:55:17.272Z,60.20
2018-09-30T17:57:45.651Z,60.00
2018-09-30T18:00:15.490Z,60.80
2018-09-30T18:02:43.834Z,60.70
2018-09-30T18:05:12.220Z,60.80
2018-09-30T18:07:40.525Z,60.00
2018-09-30T18:10:08.850Z,59.80
2018-09-30T18:12:37.157Z,59.60
2018-09-30T18:15:07.903Z,59.10
2018-09-30T18:17:36.682Z,58.60
2018-09-30T18:20:05.740Z,58.70
2018-09-30T18:22:35.086Z,58.40
2018-09-30T18:25:03.507Z,58.60
2018-09-30T18:27:31.823Z,58.60
2018-09-30T18:30:00.233Z,58.80
2018-09-30T18:32:28.994Z,58.60
2018-09-30T18:34:57.336Z,58.50
2018-09-30T18:37:25.673Z,58.60
2018-09-30T18:39:54.022Z,58.50
2018-09-30T18:42:22.503Z,58.40
2018-09-30T18:44:50.945Z,57.60
2018-09-30T18:47:19.326Z,57.30
2018-09-30T18:49:47.914Z,57.00
2018-09-30T18:52:18.327Z,56.70
2018-09-30T18:54:46.852Z,56.20
2018-09-30T18:57:15.180Z,56.80
2018-09-30T18:59:43.553Z,56.60
2018-09-30T19:02:11.858Z,56.30
2018-09-30T19:04:40.480Z,56.80
2018-09-30T19:07:09.097Z,56.40
2018-09-30T19:09:37.479Z,56.20
2018-09-30T19:12:05.912Z,56.50
2018-09-30T19:17:11.901Z,55.40
2018-09-30T19:19:40.232Z,55.90
2018-09-30T19:22:08.710Z,56.00
2018-09-30T19:24:37.373Z,55.00
2018-09-30T19:27:05.752Z,54.30
2018-09-30T19:29:34.517Z,54.20
2018-09-30T19:32:04.042Z,54.80
2018-09-30T19:34:32.362Z,54.40
2018-09-30T19:37:01.285Z,54.00
2018-09-30T19:39:29.581Z,54.10
2018-09-30T19:41:58.179Z,53.70
2018-09-30T19:44:26.557Z,53.70
2018-09-30T19:46:54.924Z,53.70
2018-09-30T19:49:23.303Z,54.40
2018-09-30T19:51:51.717Z,54.00
2018-09-30T19:54:20.103Z,54.10
2018-09-30T19:56:48.998Z,54.00
2018-09-30T19:59:17.340Z,54.10
2018-09-30T20:01:45.862Z,54.10
2018-09-30T20:04:14.864Z,54.10
2018-09-30T20:06:43.693Z,53.70
2018-09-30T20:09:17.100Z,54.00
2018-09-30T20:11:45.550Z,53.60
2018-09-30T20:14:13.895Z,54.00
2018-09-30T20:16:42.233Z,53.60
2018-09-30T20:19:10.562Z,52.90
2018-09-30T20:21:38.885Z,53.10
2018-09-30T20:24:07.247Z,53.00
2018-09-30T20:26:36.620Z,52.70
2018-09-30T20:29:04.937Z,52.80
2018-09-30T20:31:33.303Z,52.70
2018-09-30T20:34:01.677Z,51.10
2018-09-30T20:36:30.015Z,51.60
2018-09-30T20:38:58.644Z,51.80
2018-09-30T20:41:27.067Z,51.80
2018-09-30T20:43:55.504Z,52.10
2018-09-30T20:46:24.440Z,52.70
2018-09-30T20:48:52.915Z,52.90
2018-09-30T20:51:22.942Z,53.00
2018-09-30T20:53:51.369Z,53.60
2018-09-30T20:56:19.676Z,53.50
2018-09-30T20:58:48.343Z,53.60
2018-09-30T21:01:18.159Z,53.50
2018-09-30T21:03:46.715Z,53.80
2018-09-30T21:06:20.953Z,53.30
2018-09-30T21:08:49.479Z,52.70
2018-09-30T21:11:18.015Z,53.20
2018-09-30T21:13:49.142Z,52.40
2018-09-30T21:16:18.588Z,52.70
2018-09-30T21:18:47.542Z,52.60
2018-09-30T21:21:17.059Z,52.80
2018-09-30T21:23:45.785Z,51.10
2018-09-30T21:26:15.932Z,52.30
2018-09-30T21:28:45.711Z,52.70
2018-09-30T21:31:16.714Z,52.80
2018-09-30T21:33:45.323Z,52.40
2018-09-30T21:36:13.665Z,51.90
2018-09-30T21:38:41.976Z,52.60
2018-09-30T21:41:10.342Z,52.60
2018-09-30T21:43:38.629Z,52.90
2018-09-30T21:46:06.964Z,52.90
2018-09-30T21:48:35.352Z,52.70
2018-09-30T21:51:03.664Z,52.60
2018-09-30T21:53:32.069Z,52.30
2018-09-30T21:56:00.369Z,52.20
2018-09-30T21:58:28.748Z,52.20
2018-09-30T22:01:01.120Z,52.10
2018-09-30T22:03:29.833Z,53.40
2018-09-30T22:05:58.132Z,52.30
2018-09-30T22:08:26.457Z,52.10
2018-09-30T22:10:54.806Z,52.80
2018-09-30T22:13:23.191Z,53.10
2018-09-30T22:15:51.635Z,53.30
2018-09-30T22:18:19.944Z,54.10
2018-09-30T22:20:48.278Z,53.40
2018-09-30T22:23:16.660Z,52.30
2018-09-30T22:25:45.040Z,52.90
2018-09-30T22:28:13.347Z,53.30
2018-09-30T22:30:41.687Z,52.90
2018-09-30T22:33:10.056Z,53.10
2018-09-30T22:35:38.372Z,53.60
2018-09-30T22:38:06.717Z,53.70
2018-09-30T22:40:35.027Z,53.90
2018-09-30T22:43:03.461Z,54.10
2018-09-30T22:45:31.786Z,54.70
2018-09-30T22:48:00.212Z,55.50
2018-09-30T22:50:28.580Z,59.70
2018-09-30T22:52:56.999Z,61.30
2018-09-30T22:55:25.419Z,64.30
2018-09-30T22:57:53.717Z,63.40
2018-09-30T23:00:22.116Z,64.30
2018-09-30T23:02:50.481Z,64.10
2018-09-30T23:05:18.821Z,64.30
2018-09-30T23:07:47.237Z,65.00
2018-09-30T23:10:15.680Z,65.50
2018-09-30T23:12:44.014Z,64.10
2018-09-30T23:15:12.398Z,64.90
2018-09-30T23:17:40.750Z,65.10
2018-09-30T23:20:15.091Z,63.80
2018-09-30T23:22:43.521Z,64.60
2018-09-30T23:25:11.865Z,64.20
2018-09-30T23:27:40.305Z,63.50
2018-09-30T23:30:08.780Z,64.90
2018-09-30T23:32:37.601Z,63.90
2018-09-30T23:35:06.160Z,63.80
2018-09-30T23:37:34.557Z,62.40
2018-09-30T23:40:03.217Z,63.40
2018-09-30T23:42:31.518Z,63.40
2018-09-30T23:44:59.968Z,62.60
2018-09-30T23:47:28.284Z,62.00
2018-09-30T23:49:56.760Z,63.00
2018-09-30T23:52:25.078Z,63.90
2018-09-30T23:54:53.452Z,62.50
2018-09-30T23:57:21.803Z,62.30
2018-09-30T23:59:50.110Z,62.30
